createdAt,value
2023-07-25T00:00:58.352Z,0.00
2023-07-25T00:01:58.748Z,0.02
2023-07-25T00:02:58.809Z,0.02
2023-07-25T00:03:59.911Z,0.00
2023-07-25T00:04:59.116Z,0.00
2023-07-25T00:05:57.317Z,0.02
2023-07-25T00:06:57.307Z,0.02
2023-07-25T00:07:58.793Z,0.00
2023-07-25T00:08:57.461Z,0.00
2023-07-25T00:09:58.473Z,0.00
2023-07-25T00:10:58.453Z,0.00
2023-07-25T00:11:58.702Z,0.02
2023-07-25T00:12:57.184Z,0.00
2023-07-25T00:13:57.185Z,0.02
2023-07-25T00:14:58.542Z,0.00
2023-07-25T00:15:58.091Z,0.00
2023-07-25T00:16:58.245Z,0.02
2023-07-25T00:17:58.962Z,0.00
2023-07-25T00:18:58.526Z,0.02
2023-07-25T00:19:57.074Z,0.02
2023-07-25T00:20:57.100Z,0.02
2023-07-25T00:21:58.373Z,0.00
2023-07-25T00:22:58.174Z,0.02
2023-07-25T00:23:57.904Z,0.02
2023-07-25T00:24:58.611Z,0.00
2023-07-25T00:25:58.802Z,0.00
2023-07-25T00:26:58.282Z,0.02
2023-07-25T00:27:57.399Z,0.02
2023-07-25T00:28:58.179Z,0.00
2023-07-25T00:29:57.039Z,0.02
2023-07-25T00:30:57.801Z,0.00
2023-07-25T00:31:58.067Z,0.00
2023-07-25T00:32:57.969Z,0.02
2023-07-25T00:33:58.132Z,0.02
2023-07-25T00:34:58.263Z,0.00
2023-07-25T00:35:58.405Z,0.02
2023-07-25T00:36:56.903Z,0.00
2023-07-25T00:37:56.832Z,0.02
2023-07-25T00:38:58.259Z,0.00
2023-07-25T00:39:56.844Z,0.00
2023-07-25T00:40:58.357Z,0.00
2023-07-25T00:41:57.864Z,0.00
2023-07-25T00:42:58.117Z,0.00
2023-07-25T00:43:58.200Z,0.02
2023-07-25T00:44:56.762Z,0.00
2023-07-25T00:45:57.947Z,0.02
2023-07-25T00:46:56.740Z,0.00
2023-07-25T00:47:56.815Z,0.02
2023-07-25T00:48:56.748Z,0.00
2023-07-25T00:49:57.846Z,0.00
2023-07-25T00:50:57.868Z,0.00
2023-07-25T00:51:57.905Z,0.02
2023-07-25T00:52:58.092Z,0.00
2023-07-25T00:53:57.987Z,0.00
2023-07-25T00:54:57.125Z,0.00
2023-07-25T00:55:57.900Z,0.00
2023-07-25T00:56:58.493Z,0.02
2023-07-25T00:57:57.596Z,0.00
2023-07-25T00:58:57.831Z,0.02
2023-07-25T00:59:57.865Z,0.02
2023-07-25T01:00:57.907Z,0.02
2023-07-25T01:01:56.650Z,0.00
2023-07-25T01:02:57.785Z,0.00
2023-07-25T01:03:57.885Z,0.02
2023-07-25T01:04:57.432Z,0.00
2023-07-25T01:05:57.592Z,0.00
2023-07-25T01:06:59.344Z,0.00
2023-07-25T01:07:57.924Z,0.02
2023-07-25T01:08:56.441Z,0.02
2023-07-25T01:09:56.483Z,0.00
2023-07-25T01:10:56.456Z,0.00
2023-07-25T01:11:57.911Z,0.00
2023-07-25T01:12:57.627Z,0.00
2023-07-25T01:13:57.593Z,0.00
2023-07-25T01:14:57.760Z,0.00
2023-07-25T01:15:56.900Z,0.00
2023-07-25T01:16:56.377Z,0.02
2023-07-25T01:17:56.462Z,0.00
2023-07-25T01:18:56.521Z,0.00
2023-07-25T01:19:57.376Z,0.02
2023-07-25T01:20:57.553Z,0.02
2023-07-25T01:21:57.656Z,0.00
2023-07-25T01:22:57.786Z,0.00
2023-07-25T01:23:56.276Z,0.00
2023-07-25T01:24:56.297Z,0.00
2023-07-25T01:25:57.593Z,0.00
2023-07-25T01:26:57.699Z,0.02
2023-07-25T01:27:57.350Z,0.02
2023-07-25T01:28:57.474Z,0.02
2023-07-25T01:29:58.057Z,0.00
2023-07-25T01:30:57.777Z,0.02
2023-07-25T01:31:56.121Z,0.00
2023-07-25T01:32:57.456Z,0.00
2023-07-25T01:33:57.540Z,0.02
2023-07-25T01:34:57.650Z,0.00
2023-07-25T01:35:57.766Z,0.00
2023-07-25T01:36:57.882Z,0.02
2023-07-25T01:37:57.338Z,0.02
2023-07-25T01:38:56.081Z,0.00
2023-07-25T01:39:56.066Z,0.00
2023-07-25T01:40:56.042Z,0.00
2023-07-25T01:41:56.046Z,0.00
2023-07-25T01:42:57.624Z,0.02
2023-07-25T01:43:57.754Z,0.00
2023-07-25T01:44:57.208Z,0.00
2023-07-25T01:45:58.022Z,0.00
2023-07-25T01:46:56.479Z,0.00
2023-07-25T01:47:55.984Z,0.00
2023-07-25T01:48:57.325Z,0.00
2023-07-25T01:49:57.461Z,0.02
2023-07-25T01:50:57.113Z,0.02
2023-07-25T01:51:57.710Z,0.00
2023-07-25T01:52:57.188Z,0.00
2023-07-25T01:53:55.893Z,0.00
2023-07-25T01:54:56.482Z,0.00
2023-07-25T01:55:57.305Z,0.00
2023-07-25T01:56:57.373Z,0.00
2023-07-25T01:57:56.954Z,0.02
2023-07-25T01:58:57.114Z,0.00
2023-07-25T01:59:57.725Z,0.02
2023-07-25T02:00:56.825Z,0.00
2023-07-25T02:01:55.870Z,0.00
2023-07-25T02:02:57.095Z,0.02
2023-07-25T02:03:57.185Z,0.00
2023-07-25T02:04:56.800Z,0.00
2023-07-25T02:05:56.976Z,0.02
2023-07-25T02:06:57.616Z,0.02
2023-07-25T02:07:57.299Z,0.02
2023-07-25T02:08:56.349Z,0.00
2023-07-25T02:09:55.641Z,0.00
2023-07-25T02:10:56.475Z,0.02
2023-07-25T02:11:56.675Z,0.02
2023-07-25T02:12:56.909Z,0.02
2023-07-25T02:13:56.967Z,0.02
2023-07-25T02:14:55.569Z,0.00
2023-07-25T02:15:55.579Z,0.02
2023-07-25T02:16:56.192Z,0.02
2023-07-25T02:17:55.571Z,0.00
2023-07-25T02:18:56.469Z,0.00
2023-07-25T02:19:56.572Z,0.00
2023-07-25T02:20:56.582Z,0.00
2023-07-25T02:21:56.708Z,0.00
2023-07-25T02:22:56.929Z,0.00
2023-07-25T02:23:55.493Z,0.00
2023-07-25T02:24:55.535Z,0.02
2023-07-25T02:25:55.489Z,0.00
2023-07-25T02:26:55.499Z,0.00
2023-07-25T02:27:56.875Z,0.00
2023-07-25T02:28:56.539Z,0.00
2023-07-25T02:29:56.603Z,0.00
2023-07-25T02:30:56.678Z,0.00
2023-07-25T02:31:56.773Z,0.02
2023-07-25T02:32:55.479Z,0.00
2023-07-25T02:33:55.318Z,0.00
2023-07-25T02:34:56.552Z,0.02
2023-07-25T02:35:56.767Z,0.05
2023-07-25T02:36:56.801Z,0.00
2023-07-25T02:37:56.438Z,0.01
2023-07-25T02:38:56.595Z,0.02
2023-07-25T02:39:57.182Z,0.02
2023-07-25T02:40:55.263Z,0.02
2023-07-25T02:41:55.232Z,0.00
2023-07-25T02:42:55.237Z,0.00
2023-07-25T02:43:56.652Z,0.00
2023-07-25T02:44:56.309Z,0.00
2023-07-25T02:45:56.394Z,0.00
2023-07-25T02:46:56.553Z,0.00
2023-07-25T02:47:55.746Z,0.00
2023-07-25T02:48:55.150Z,0.02
2023-07-25T02:49:55.157Z,0.00
2023-07-25T02:50:56.576Z,0.02
2023-07-25T02:51:56.134Z,0.02
2023-07-25T02:52:56.399Z,0.02
2023-07-25T02:53:56.470Z,0.02
2023-07-25T02:54:55.072Z,0.02
2023-07-25T02:55:55.166Z,0.00
2023-07-25T02:56:55.083Z,0.01
2023-07-25T02:57:56.432Z,0.00
2023-07-25T02:58:56.112Z,0.01
2023-07-25T02:59:56.124Z,0.01
2023-07-25T03:00:56.303Z,0.01
2023-07-25T03:01:56.478Z,0.01
2023-07-25T03:02:55.031Z,0.01
2023-07-25T03:03:54.967Z,0.02
2023-07-25T03:04:56.372Z,0.02
2023-07-25T03:05:56.068Z,0.02
2023-07-25T03:06:56.234Z,0.02
2023-07-25T03:07:56.262Z,0.12
2023-07-25T03:08:56.279Z,0.08
2023-07-25T03:09:55.991Z,0.06
2023-07-25T03:10:56.113Z,0.08
2023-07-25T03:11:56.190Z,0.15
2023-07-25T03:12:56.344Z,0.05
2023-07-25T03:13:56.060Z,0.18
2023-07-25T03:14:55.966Z,0.07
2023-07-25T03:15:56.128Z,0.09
2023-07-25T03:16:54.784Z,0.10
2023-07-25T03:17:54.816Z,0.11
2023-07-25T03:18:55.585Z,0.25
2023-07-25T03:19:56.316Z,0.13
2023-07-25T03:20:56.340Z,0.30
2023-07-25T03:21:56.002Z,0.15
2023-07-25T03:22:56.217Z,0.17
2023-07-25T03:23:54.683Z,0.20
2023-07-25T03:24:54.793Z,0.24
2023-07-25T03:25:56.059Z,0.26
2023-07-25T03:26:56.140Z,0.35
2023-07-25T03:27:56.253Z,0.28
2023-07-25T03:28:55.916Z,0.39
2023-07-25T03:29:56.085Z,0.43
2023-07-25T03:30:54.601Z,0.49
2023-07-25T03:31:54.591Z,0.53
2023-07-25T03:32:54.682Z,0.60
2023-07-25T03:33:56.115Z,0.68
2023-07-25T03:34:55.649Z,0.76
2023-07-25T03:35:55.807Z,0.87
2023-07-25T03:36:55.934Z,1.01
2023-07-25T03:37:54.528Z,1.20
2023-07-25T03:38:54.525Z,1.41
2023-07-25T03:39:54.508Z,1.67
2023-07-25T03:40:56.000Z,1.89
2023-07-25T03:41:56.019Z,2.11
2023-07-25T03:42:55.741Z,2.34
2023-07-25T03:43:55.742Z,2.64
2023-07-25T03:44:55.909Z,3.00
2023-07-25T03:45:54.513Z,3.36
2023-07-25T03:46:55.668Z,3.75
2023-07-25T03:47:54.408Z,4.01
2023-07-25T03:48:55.926Z,4.19
2023-07-25T03:49:55.595Z,4.30
2023-07-25T03:50:57.185Z,4.41
2023-07-25T03:51:57.291Z,4.48
2023-07-25T03:52:55.046Z,4.53
2023-07-25T03:53:54.984Z,4.54
2023-07-25T03:54:55.134Z,4.54
2023-07-25T03:55:55.841Z,4.51
2023-07-25T03:56:56.886Z,4.56
2023-07-25T03:57:55.535Z,4.79
2023-07-25T03:58:55.643Z,5.11
2023-07-25T03:59:54.254Z,5.50
2023-07-25T04:00:54.189Z,5.82
2023-07-25T04:01:55.565Z,5.96
2023-07-25T04:03:09.152Z,6.06
2023-07-25T04:03:56.192Z,6.28
2023-07-25T04:04:56.830Z,6.47
2023-07-25T04:05:55.425Z,7.21
2023-07-25T04:06:56.181Z,7.80
2023-07-25T04:07:54.120Z,8.62
2023-07-25T04:08:54.121Z,9.48
2023-07-25T04:09:54.156Z,9.88
2023-07-25T04:10:55.597Z,10.28
2023-07-25T04:11:55.241Z,10.25
2023-07-25T04:12:55.344Z,9.72
2023-07-25T04:13:55.461Z,9.39
2023-07-25T04:14:54.095Z,8.84
2023-07-25T04:15:54.060Z,8.75
2023-07-25T04:16:54.092Z,9.08
2023-07-25T04:17:54.018Z,9.45
2023-07-25T04:18:55.516Z,9.85
2023-07-25T04:19:55.155Z,10.25
2023-07-25T04:20:55.262Z,10.68
2023-07-25T04:21:55.930Z,11.04
2023-07-25T04:22:53.957Z,11.52
2023-07-25T04:23:53.880Z,12.30
2023-07-25T04:24:54.029Z,13.33
2023-07-25T04:25:55.306Z,14.57
2023-07-25T04:26:55.537Z,15.97
2023-07-25T04:27:55.648Z,17.28
2023-07-25T04:28:55.681Z,18.56
2023-07-25T04:29:55.173Z,20.10
2023-07-25T04:30:54.917Z,21.91
2023-07-25T04:31:54.473Z,23.61
2023-07-25T04:32:55.246Z,25.25
2023-07-25T04:33:55.302Z,27.02
2023-07-25T04:34:54.657Z,29.11
2023-07-25T04:35:54.839Z,31.20
2023-07-25T04:36:55.059Z,33.08
2023-07-25T04:37:53.728Z,33.90
2023-07-25T04:38:53.776Z,34.08
2023-07-25T04:39:53.717Z,33.72
2023-07-25T04:40:53.760Z,33.44
2023-07-25T04:41:53.946Z,33.71
2023-07-25T04:42:54.898Z,34.68
2023-07-25T04:43:54.856Z,36.27
2023-07-25T04:44:57.161Z,38.77
2023-07-25T04:45:54.884Z,41.55
2023-07-25T04:46:53.685Z,44.36
2023-07-25T04:47:53.689Z,47.67
2023-07-25T04:48:55.073Z,50.88
2023-07-25T04:49:54.684Z,54.47
2023-07-25T04:50:54.940Z,58.22
2023-07-25T04:51:55.001Z,62.10
2023-07-25T04:52:53.572Z,65.71
2023-07-25T04:53:53.584Z,69.00
2023-07-25T04:54:54.830Z,71.62
2023-07-25T04:55:54.983Z,74.81
2023-07-25T04:56:54.631Z,78.54
2023-07-25T04:57:54.791Z,82.65
2023-07-25T04:58:54.698Z,86.77
2023-07-25T04:59:53.413Z,91.19
2023-07-25T05:00:54.589Z,95.25
2023-07-25T05:01:54.711Z,100.92
2023-07-25T05:02:55.954Z,108.15
2023-07-25T05:03:54.555Z,116.70
2023-07-25T05:04:54.618Z,125.76
2023-07-25T05:05:55.284Z,133.52
2023-07-25T05:06:53.326Z,139.31
2023-07-25T05:07:53.322Z,143.52
2023-07-25T05:08:53.329Z,146.67
2023-07-25T05:09:53.396Z,149.43
2023-07-25T05:10:54.451Z,151.65
2023-07-25T05:11:54.457Z,156.93
2023-07-25T05:12:56.125Z,159.42
2023-07-25T05:13:53.248Z,159.91
2023-07-25T05:14:53.917Z,165.40
2023-07-25T05:15:54.542Z,167.97
2023-07-25T05:16:54.686Z,169.75
2023-07-25T05:17:54.787Z,171.65
2023-07-25T05:18:54.409Z,173.42
2023-07-25T05:19:54.522Z,174.84
2023-07-25T05:20:55.101Z,176.14
2023-07-25T05:21:53.162Z,175.51
2023-07-25T05:22:53.195Z,173.66
2023-07-25T05:23:53.152Z,171.03
2023-07-25T05:24:54.649Z,169.59
2023-07-25T05:25:54.264Z,169.87
2023-07-25T05:26:54.315Z,171.92
2023-07-25T05:27:54.469Z,174.29
2023-07-25T05:28:54.089Z,176.51
2023-07-25T05:29:53.075Z,178.81
2023-07-25T05:30:54.340Z,180.85
2023-07-25T05:31:54.486Z,184.57
2023-07-25T05:32:53.237Z,186.62
2023-07-25T05:33:54.156Z,187.89
2023-07-25T05:34:55.842Z,187.11
2023-07-25T05:35:54.465Z,185.90
2023-07-25T05:36:53.511Z,185.19
2023-07-25T05:37:53.601Z,186.12
2023-07-25T05:38:52.924Z,186.60
2023-07-25T05:39:53.833Z,186.72
2023-07-25T05:40:54.076Z,186.59
2023-07-25T05:41:54.143Z,185.59
2023-07-25T05:42:54.800Z,183.99
2023-07-25T05:43:52.827Z,180.59
2023-07-25T05:44:52.825Z,176.42
2023-07-25T05:45:54.230Z,172.51
2023-07-25T05:46:54.263Z,169.39
2023-07-25T05:47:53.864Z,167.17
2023-07-25T05:48:53.983Z,163.67
2023-07-25T05:49:54.144Z,159.28
2023-07-25T05:50:52.746Z,154.36
2023-07-25T05:51:53.928Z,149.98
2023-07-25T05:52:53.608Z,146.43
2023-07-25T05:53:54.175Z,146.00
2023-07-25T05:54:54.248Z,146.27
2023-07-25T05:55:53.908Z,147.66
2023-07-25T05:56:53.983Z,149.21
2023-07-25T05:57:54.660Z,150.63
2023-07-25T05:58:53.593Z,150.86
2023-07-25T05:59:52.672Z,150.90
2023-07-25T06:00:53.940Z,150.79
2023-07-25T06:01:53.992Z,149.29
2023-07-25T06:02:53.684Z,147.56
2023-07-25T06:03:53.772Z,146.40
2023-07-25T06:04:53.722Z,146.25
2023-07-25T06:05:53.873Z,146.05
2023-07-25T06:06:52.577Z,145.37
2023-07-25T06:07:54.261Z,144.71
2023-07-25T06:08:53.285Z,144.87
2023-07-25T06:09:53.926Z,145.12
2023-07-25T06:10:53.395Z,145.24
2023-07-25T06:11:54.301Z,145.59
2023-07-25T06:12:53.721Z,146.20
2023-07-25T06:13:52.474Z,146.91
2023-07-25T06:14:53.019Z,147.64
2023-07-25T06:15:53.742Z,147.43
2023-07-25T06:16:53.355Z,145.12
2023-07-25T06:17:54.018Z,146.61
2023-07-25T06:18:55.107Z,150.22
2023-07-25T06:19:55.236Z,156.14
2023-07-25T06:20:55.338Z,155.11
2023-07-25T06:21:52.964Z,150.02
2023-07-25T06:22:52.340Z,148.36
2023-07-25T06:23:53.203Z,153.63
2023-07-25T06:24:53.877Z,158.22
2023-07-25T06:25:53.988Z,162.17
2023-07-25T06:26:55.181Z,164.61
2023-07-25T06:27:54.761Z,166.17
2023-07-25T06:28:54.004Z,165.88
2023-07-25T06:29:52.294Z,165.39
2023-07-25T06:30:53.039Z,165.53
2023-07-25T06:31:53.799Z,165.95
2023-07-25T06:32:55.387Z,165.86
2023-07-25T06:33:53.502Z,165.11
2023-07-25T06:34:53.659Z,162.37
2023-07-25T06:35:52.700Z,158.33
2023-07-25T06:36:52.828Z,151.09
2023-07-25T06:37:52.955Z,148.05
2023-07-25T06:38:53.647Z,146.99
2023-07-25T06:39:54.598Z,145.65
2023-07-25T06:40:53.350Z,143.12
2023-07-25T06:41:53.236Z,140.79
2023-07-25T06:42:53.401Z,139.24
2023-07-25T06:43:52.102Z,138.18
2023-07-25T06:44:53.267Z,138.35
2023-07-25T06:45:53.267Z,139.02
2023-07-25T06:46:53.454Z,139.08
2023-07-25T06:47:52.938Z,138.87
2023-07-25T06:48:53.686Z,138.42
2023-07-25T06:49:54.786Z,137.86
2023-07-25T06:50:54.950Z,137.36
2023-07-25T06:51:52.505Z,136.75
2023-07-25T06:52:52.594Z,137.25
2023-07-25T06:53:53.338Z,138.84
2023-07-25T06:54:53.396Z,139.73
2023-07-25T06:55:54.612Z,140.26
2023-07-25T06:56:53.237Z,141.21
2023-07-25T06:57:54.901Z,141.77
2023-07-25T06:58:53.559Z,141.39
2023-07-25T06:59:51.883Z,141.72
2023-07-25T07:00:53.282Z,143.26
2023-07-25T07:01:51.986Z,145.22
2023-07-25T07:02:53.143Z,145.18
2023-07-25T07:03:53.203Z,143.54
2023-07-25T07:04:52.327Z,141.06
2023-07-25T07:05:51.803Z,138.56
2023-07-25T07:06:53.117Z,135.16
2023-07-25T07:07:53.195Z,132.33
2023-07-25T07:08:52.872Z,131.67
2023-07-25T07:09:53.127Z,132.95
2023-07-25T07:10:53.033Z,134.99
2023-07-25T07:11:53.177Z,135.54
2023-07-25T07:12:52.469Z,135.02
2023-07-25T07:13:53.021Z,133.97
2023-07-25T07:14:53.140Z,133.30
2023-07-25T07:15:54.339Z,134.08
2023-07-25T07:16:53.448Z,134.79
2023-07-25T07:17:53.890Z,135.89
2023-07-25T07:18:52.310Z,137.96
2023-07-25T07:19:52.268Z,141.51
2023-07-25T07:20:52.977Z,144.80
2023-07-25T07:21:53.179Z,148.60
2023-07-25T07:22:52.676Z,152.50
2023-07-25T07:23:54.383Z,159.44
2023-07-25T07:24:54.646Z,163.38
2023-07-25T07:25:52.159Z,165.97
2023-07-25T07:26:52.800Z,168.52
2023-07-25T07:27:52.966Z,172.40
2023-07-25T07:28:52.573Z,176.17
2023-07-25T07:29:52.727Z,179.32
2023-07-25T07:30:54.407Z,181.81
2023-07-25T07:31:51.484Z,185.84
2023-07-25T07:32:51.432Z,189.96
2023-07-25T07:33:51.405Z,194.85
2023-07-25T07:34:52.513Z,199.70
2023-07-25T07:35:52.560Z,203.50
2023-07-25T07:36:53.242Z,204.71
2023-07-25T07:37:51.408Z,203.65
2023-07-25T07:38:51.934Z,208.22
2023-07-25T07:39:51.313Z,217.19
2023-07-25T07:40:52.258Z,228.12
2023-07-25T07:41:51.642Z,237.86
2023-07-25T07:42:52.558Z,246.74
2023-07-25T07:43:52.728Z,254.48
2023-07-25T07:44:52.274Z,259.48
2023-07-25T07:45:51.274Z,262.01
2023-07-25T07:46:52.029Z,261.47
2023-07-25T07:47:52.776Z,259.88
2023-07-25T07:48:52.186Z,258.85
2023-07-25T07:49:52.335Z,257.55
2023-07-25T07:50:53.210Z,255.64
2023-07-25T07:52:09.020Z,253.37
2023-07-25T07:52:52.821Z,251.99
2023-07-25T07:53:51.964Z,249.65
2023-07-25T07:54:52.650Z,246.74
2023-07-25T07:55:51.333Z,244.26
2023-07-25T07:56:52.453Z,242.31
2023-07-25T07:57:52.593Z,240.59
2023-07-25T07:58:51.080Z,237.33
2023-07-25T07:59:51.079Z,234.83
2023-07-25T08:00:52.430Z,234.48
2023-07-25T08:01:52.625Z,234.00
2023-07-25T08:02:52.363Z,236.52
2023-07-25T08:03:52.431Z,245.60
2023-07-25T08:04:51.524Z,257.52
2023-07-25T08:05:50.986Z,270.43
2023-07-25T08:06:52.313Z,280.15
2023-07-25T08:07:52.474Z,280.84
2023-07-25T08:08:52.050Z,282.89
2023-07-25T08:09:52.219Z,285.78
2023-07-25T08:10:52.373Z,287.22
2023-07-25T08:11:50.916Z,294.46
2023-07-25T08:12:50.913Z,309.73
2023-07-25T08:13:52.313Z,321.16
2023-07-25T08:14:52.506Z,328.07
2023-07-25T08:15:52.641Z,333.71
2023-07-25T08:16:52.764Z,359.97
2023-07-25T08:17:51.907Z,375.78
2023-07-25T08:18:50.832Z,393.05
2023-07-25T08:19:50.837Z,406.31
2023-07-25T08:20:52.321Z,418.43
2023-07-25T08:21:51.938Z,427.81
2023-07-25T08:22:52.125Z,432.98
2023-07-25T08:23:52.252Z,435.04
2023-07-25T08:24:50.770Z,440.74
2023-07-25T08:25:50.757Z,442.07
2023-07-25T08:26:50.756Z,444.21
2023-07-25T08:27:51.758Z,446.71
2023-07-25T08:28:51.932Z,451.81
2023-07-25T08:29:52.123Z,459.11
2023-07-25T08:30:50.678Z,459.64
2023-07-25T08:31:50.707Z,456.68
2023-07-25T08:32:50.697Z,473.78
2023-07-25T08:33:51.455Z,504.29
2023-07-25T08:34:51.617Z,539.52
2023-07-25T08:35:51.891Z,567.45
2023-07-25T08:36:51.953Z,593.58
2023-07-25T08:37:50.600Z,619.74
2023-07-25T08:38:51.786Z,645.04
2023-07-25T08:39:51.915Z,666.38
2023-07-25T08:40:52.041Z,676.44
2023-07-25T08:41:52.695Z,690.27
2023-07-25T08:42:52.353Z,714.69
2023-07-25T08:43:53.561Z,722.14
2023-07-25T08:44:50.515Z,706.94
2023-07-25T08:45:50.562Z,683.35
2023-07-25T08:46:51.794Z,664.85
2023-07-25T08:47:52.001Z,652.45
2023-07-25T08:48:51.579Z,651.21
2023-07-25T08:49:52.211Z,650.69
2023-07-25T08:50:52.372Z,651.93
2023-07-25T08:51:52.478Z,646.96
2023-07-25T08:52:50.362Z,643.33
2023-07-25T08:53:51.670Z,637.93
2023-07-25T08:54:51.868Z,621.73
2023-07-25T08:55:51.945Z,606.29
2023-07-25T08:56:51.553Z,590.08
2023-07-25T08:57:51.700Z,581.14
2023-07-25T08:58:52.313Z,576.20
2023-07-25T08:59:50.266Z,577.64
2023-07-25T09:00:50.899Z,576.87
2023-07-25T09:01:51.341Z,578.68
2023-07-25T09:02:53.723Z,581.88
2023-07-25T09:03:51.470Z,581.94
2023-07-25T09:04:51.585Z,577.70
2023-07-25T09:05:52.149Z,576.13
2023-07-25T09:06:50.582Z,576.91
2023-07-25T09:07:50.188Z,582.22
2023-07-25T09:08:50.907Z,592.13
2023-07-25T09:09:51.704Z,605.95
2023-07-25T09:10:51.222Z,617.67
2023-07-25T09:11:51.392Z,627.00
2023-07-25T09:12:51.552Z,638.41
2023-07-25T09:13:50.102Z,659.33
2023-07-25T09:14:50.100Z,690.09
2023-07-25T09:15:50.129Z,722.97
2023-07-25T09:16:51.610Z,739.76
2023-07-25T09:17:51.369Z,746.01
2023-07-25T09:18:51.224Z,755.81
2023-07-25T09:19:51.395Z,766.62
2023-07-25T09:20:50.026Z,769.05
2023-07-25T09:21:51.214Z,782.88
2023-07-25T09:22:50.057Z,792.92
2023-07-25T09:23:51.468Z,801.98
2023-07-25T09:24:51.207Z,801.95
2023-07-25T09:25:51.263Z,807.90
2023-07-25T09:26:51.221Z,825.46
2023-07-25T09:27:49.941Z,849.82
2023-07-25T09:28:49.955Z,881.17
2023-07-25T09:29:49.944Z,914.42
2023-07-25T09:30:51.309Z,945.83
2023-07-25T09:31:51.639Z,971.24
2023-07-25T09:32:51.091Z,991.88
2023-07-25T09:33:51.138Z,1000.99
2023-07-25T09:34:51.268Z,1013.55
2023-07-25T09:35:51.376Z,1013.50
2023-07-25T09:36:49.792Z,1021.98
2023-07-25T09:37:51.034Z,1021.15
2023-07-25T09:38:51.120Z,1018.43
2023-07-25T09:39:52.545Z,1008.96
2023-07-25T09:40:51.333Z,1005.68
2023-07-25T09:41:50.816Z,996.44
2023-07-25T09:42:50.963Z,987.63
2023-07-25T09:43:51.131Z,987.40
2023-07-25T09:44:50.778Z,988.44
2023-07-25T09:45:49.766Z,978.29
2023-07-25T09:46:49.706Z,969.77
2023-07-25T09:47:51.254Z,958.78
2023-07-25T09:48:50.661Z,947.10
2023-07-25T09:49:50.898Z,954.96
2023-07-25T09:50:50.970Z,965.15
2023-07-25T09:51:49.640Z,966.12
2023-07-25T09:52:49.653Z,981.27
2023-07-25T09:53:51.018Z,1029.64
2023-07-25T09:54:49.559Z,1047.55
2023-07-25T09:55:50.490Z,1050.54
2023-07-25T09:56:50.650Z,1074.05
2023-07-25T09:57:50.801Z,1087.27
2023-07-25T09:59:50.956Z,1066.27
2023-07-25T10:00:49.470Z,1057.82
2023-07-25T10:01:50.736Z,1002.84
2023-07-25T10:02:50.947Z,993.51
2023-07-25T10:03:50.628Z,966.44
2023-07-25T10:04:50.570Z,957.79
2023-07-25T10:05:50.690Z,941.88
2023-07-25T10:06:50.825Z,930.98
2023-07-25T10:07:50.875Z,936.74
2023-07-25T10:08:49.393Z,946.30
2023-07-25T10:09:49.395Z,963.94
2023-07-25T10:10:49.390Z,1036.23
2023-07-25T10:11:50.785Z,1046.02
2023-07-25T10:12:50.418Z,1014.19
2023-07-25T10:13:50.589Z,1153.52
2023-07-25T10:14:50.710Z,1169.16
2023-07-25T10:15:50.640Z,1262.67
2023-07-25T10:16:49.316Z,1005.46
2023-07-25T10:17:49.328Z,1164.85
2023-07-25T10:18:50.557Z,1090.52
2023-07-25T10:19:50.746Z,1125.83
2023-07-25T10:20:50.139Z,1089.53
2023-07-25T10:21:50.317Z,1100.57
2023-07-25T10:22:50.461Z,1078.14
2023-07-25T10:23:50.633Z,1027.51
2023-07-25T10:24:49.203Z,1020.84
2023-07-25T10:25:49.168Z,1026.34
2023-07-25T10:26:50.430Z,986.46
2023-07-25T10:27:49.163Z,1015.42
2023-07-25T10:28:50.140Z,1125.32
2023-07-25T10:29:50.320Z,1144.17
2023-07-25T10:30:50.200Z,1068.50
2023-07-25T10:31:50.421Z,1014.60
2023-07-25T10:32:50.554Z,1256.93
2023-07-25T10:33:49.089Z,1125.50
2023-07-25T10:34:49.084Z,1085.35
2023-07-25T10:35:49.011Z,1124.39
2023-07-25T10:36:50.528Z,1089.83
2023-07-25T10:37:50.113Z,1001.58
2023-07-25T10:38:50.943Z,1027.92
2023-07-25T10:39:50.363Z,1087.52
2023-07-25T10:40:51.481Z,949.48
2023-07-25T10:41:48.987Z,953.06
2023-07-25T10:43:48.921Z,843.96
2023-07-25T10:44:50.342Z,1112.00
2023-07-25T10:45:50.455Z,838.55
2023-07-25T10:46:50.141Z,827.59
2023-07-25T10:47:50.172Z,1058.61
2023-07-25T10:48:50.327Z,1285.98
2023-07-25T10:49:50.179Z,1357.56
2023-07-25T10:50:48.889Z,1235.78
2023-07-25T10:51:48.833Z,1144.21
2023-07-25T10:52:48.844Z,1414.24
2023-07-25T10:53:48.851Z,1281.80
2023-07-25T10:54:49.944Z,1573.86
2023-07-25T10:55:48.925Z,1626.78
2023-07-25T10:56:49.748Z,1612.90
2023-07-25T10:57:50.179Z,1045.65
2023-07-25T10:58:50.065Z,771.69
2023-07-25T10:59:49.995Z,746.70
2023-07-25T11:00:50.193Z,738.23
2023-07-25T11:01:48.693Z,725.29
2023-07-25T11:02:48.710Z,727.56
2023-07-25T11:03:48.709Z,769.84
2023-07-25T11:04:49.503Z,783.97
2023-07-25T11:05:49.661Z,783.84
2023-07-25T11:06:50.255Z,781.26
2023-07-25T11:07:49.727Z,795.74
2023-07-25T11:08:49.931Z,841.08
2023-07-25T11:09:50.031Z,920.80
2023-07-25T11:10:48.591Z,1031.46
2023-07-25T11:11:49.755Z,1073.44
2023-07-25T11:12:48.606Z,1151.71
2023-07-25T11:13:48.791Z,1125.89
2023-07-25T11:14:49.502Z,938.41
2023-07-25T11:15:49.564Z,915.18
2023-07-25T11:16:50.246Z,927.92
2023-07-25T11:17:49.843Z,966.38
2023-07-25T11:18:49.902Z,1040.72
2023-07-25T11:19:49.988Z,1168.11
2023-07-25T11:20:48.436Z,1448.23
2023-07-25T11:21:48.444Z,1685.89
2023-07-25T11:22:49.745Z,1396.56
2023-07-25T11:23:49.862Z,1173.72
2023-07-25T11:24:49.954Z,1261.29
2023-07-25T11:25:49.550Z,1225.38
2023-07-25T11:26:49.701Z,1803.07
2023-07-25T11:27:49.721Z,1190.68
2023-07-25T11:28:49.871Z,1124.83
2023-07-25T11:29:48.372Z,977.52
2023-07-25T11:30:48.380Z,975.61
2023-07-25T11:31:49.229Z,988.05
2023-07-25T11:32:49.150Z,992.48
2023-07-25T11:33:49.270Z,1082.42
2023-07-25T11:34:49.435Z,1002.19
2023-07-25T11:35:49.344Z,995.79
2023-07-25T11:36:49.511Z,996.13
2023-07-25T11:37:49.679Z,984.91
2023-07-25T11:38:48.288Z,971.57
2023-07-25T11:39:48.958Z,951.29
2023-07-25T11:40:49.534Z,942.50
2023-07-25T11:41:49.667Z,932.69
2023-07-25T11:42:50.756Z,918.35
2023-07-25T11:43:49.338Z,913.50
2023-07-25T11:44:50.476Z,928.90
2023-07-25T11:45:50.574Z,972.65
2023-07-25T11:46:48.200Z,1028.04
2023-07-25T11:47:48.829Z,1118.70
2023-07-25T11:48:48.120Z,1509.46
2023-07-25T11:49:58.622Z,1356.83
2023-07-25T11:50:50.294Z,1532.15
2023-07-25T11:51:49.276Z,1326.98
2023-07-25T11:52:49.492Z,1270.24
2023-07-25T11:53:49.457Z,1173.56
2023-07-25T11:54:50.058Z,1138.21
2023-07-25T11:55:47.973Z,1105.43
2023-07-25T11:56:47.957Z,1059.24
2023-07-25T11:57:47.956Z,1048.38
2023-07-25T11:58:49.420Z,1064.71
2023-07-25T11:59:49.074Z,1062.92
2023-07-25T12:00:48.428Z,1076.29
2023-07-25T12:01:49.265Z,1054.26
2023-07-25T12:02:49.359Z,1058.92
2023-07-25T12:03:49.182Z,1073.74
2023-07-25T12:04:47.878Z,1093.02
2023-07-25T12:05:47.867Z,1122.60
2023-07-25T12:06:48.675Z,1145.75
2023-07-25T12:07:49.403Z,1182.25
2023-07-25T12:08:48.986Z,1216.41
2023-07-25T12:09:49.625Z,1275.94
2023-07-25T12:10:49.064Z,1335.98
2023-07-25T12:11:49.254Z,1400.99
2023-07-25T12:12:47.778Z,1431.50
2023-07-25T12:13:48.512Z,1412.35
2023-07-25T12:14:47.794Z,1753.85
2023-07-25T12:15:48.575Z,1677.54
2023-07-25T12:16:48.774Z,1663.69
2023-07-25T12:17:49.365Z,1640.82
2023-07-25T12:18:48.801Z,1622.35
2023-07-25T12:19:48.950Z,1596.84
2023-07-25T12:20:57.941Z,1610.26
2023-07-25T12:21:48.986Z,1609.83
2023-07-25T12:22:48.210Z,1591.39
2023-07-25T12:23:48.298Z,1623.31
2023-07-25T12:24:47.672Z,1655.29
2023-07-25T12:25:47.623Z,1673.80
2023-07-25T12:26:48.812Z,1661.31
2023-07-25T12:27:48.726Z,1579.55
2023-07-25T12:28:50.303Z,1487.63
2023-07-25T12:29:48.877Z,1494.12
2023-07-25T12:30:48.928Z,1650.11
2023-07-25T12:31:47.548Z,1674.36
2023-07-25T12:32:47.636Z,1644.24
2023-07-25T12:33:48.180Z,1649.49
2023-07-25T12:34:47.457Z,1664.36
2023-07-25T12:35:48.865Z,1635.07
2023-07-25T12:36:49.002Z,1688.97
2023-07-25T12:37:48.514Z,1691.19
2023-07-25T12:38:48.668Z,1583.72
2023-07-25T12:39:48.569Z,1711.10
2023-07-25T12:40:48.846Z,1623.61
2023-07-25T12:41:47.441Z,1821.30
2023-07-25T12:42:47.375Z,1781.80
2023-07-25T12:43:47.375Z,1791.55